메인 페이지
METAR-TAF:

METAR-TAF

공항 :

애틀랜타, 조지아, 미국

위도: 33-46-39N, 경도: 084-31-28W, 고도: 256m

현재 날씨관측

예보는 42분 전, 14:53시(UTC)에 발표되었습니다.
무풍
온도 26°C
습도 74%
기압 1021 hPa
시정: 16.1km
맑음

METAR: KFTY 201453Z 00000KT 10SM CLR 26/21 A3016 RMK AO2 SLP202 T02610206 50006

시각: 11:35 (15:35 UTC)

예보

예보는 3 시간 58분 전, 11:37시(UTC)에 발표되었습니다.
예보 대상 시간: 20일 12시부터 21일 12시까지 (UTC)
kt
시정: 10km
맑음
20일 1900시부터 (UTC)
남동6kt
시정: 10km
고도 5000ft 상공 구름 보통
20일 2200시부터 (UTC)
남남동5kt
시정: 10km
고도 6000ft 상공 구름 많음
21일 0400시부터 (UTC)
kt
시정: 10km
고도 7000ft 상공 구름 많음
21일 0900시부터 (UTC)
kt
시정: 9.7km
고도 3000ft 상공 구름 많음
박무

TAF: KFTY 201137Z 2012/2112 00000KT P6SM SKC FM201900 14006KT P6SM SCT050 FM202200 16005KT P6SM BKN060 FM210400 00000KT P6SM BKN070 FM210900 00000KT 6SM BR BKN030

4,000개 이상의 공항 관측 자료 및 예보 (METAR 및 TAF 보고).

지도상에서 검색 가능한 기상관측소가 노란 점과 빨간 점으로 표시되어 있습니다.

기상관측소 명을 보려면 표시 위로 마우스를 이동하세요.

날씨 관측과 예보를 보려면 클릭하세요.

지도 변경 : 확대하려면 엑스 표시가 있는 녹색 버튼, 축소하려면 빼기 표시가 있는 녹색 버튼, 다음 페이지의 지도를 보려면 녹색 화살표를 클릭하세요.


METAR-TAF: